createdAt,value
2023-07-18T00:00:59.212Z,97835.94
2023-07-18T00:03:29.707Z,97835.97
2023-07-18T00:05:59.503Z,97850.91
2023-07-18T00:08:28.728Z,97850.03
2023-07-18T00:10:56.556Z,97859.25
2023-07-18T00:13:24.381Z,97861.25
2023-07-18T00:15:52.365Z,97860.59
2023-07-18T00:18:22.610Z,97873.53
2023-07-18T00:20:50.617Z,97866.53
2023-07-18T00:23:18.416Z,97845.13
2023-07-18T00:25:47.757Z,97814.41
2023-07-18T00:28:17.367Z,97819.81
2023-07-18T00:30:45.188Z,97809.50
2023-07-18T00:33:13.004Z,97818.41
2023-07-18T00:35:41.266Z,97811.06
2023-07-18T00:38:09.101Z,97816.97
2023-07-18T00:40:37.725Z,97824.16
2023-07-18T00:43:06.883Z,97821.97
2023-07-18T00:45:34.731Z,97845.63
2023-07-18T00:48:02.673Z,97841.75
2023-07-18T00:50:30.666Z,97832.00
2023-07-18T00:52:58.572Z,97838.59
2023-07-18T00:55:26.466Z,97837.75
2023-07-18T00:57:54.369Z,97845.84
2023-07-18T01:00:24.483Z,97843.13
2023-07-18T01:02:52.567Z,97837.50
2023-07-18T01:05:20.753Z,97825.63
2023-07-18T01:07:48.950Z,97836.38
2023-07-18T01:10:24.222Z,97829.97
2023-07-18T01:12:52.445Z,97836.56
2023-07-18T01:15:20.719Z,97834.59
2023-07-18T01:17:53.862Z,97840.13
2023-07-18T01:20:22.997Z,97845.81
2023-07-18T01:22:52.876Z,97839.19
2023-07-18T01:25:20.961Z,97839.63
2023-07-18T01:27:49.174Z,97830.94
2023-07-18T01:30:19.042Z,97831.72
2023-07-18T01:32:50.030Z,97830.19
2023-07-18T01:35:18.713Z,97836.94
2023-07-18T01:37:47.716Z,97847.94
2023-07-18T01:40:21.325Z,97853.78
2023-07-18T01:42:51.487Z,97850.94
2023-07-18T01:45:19.590Z,97853.63
2023-07-18T01:47:48.056Z,97831.81
2023-07-18T01:50:15.945Z,97811.56
2023-07-18T01:52:43.794Z,97811.72
2023-07-18T01:55:11.925Z,97824.00
2023-07-18T01:57:48.005Z,97818.75
2023-07-18T02:00:20.221Z,97819.34
2023-07-18T02:02:49.252Z,97828.09
2023-07-18T02:05:19.168Z,97822.28
2023-07-18T02:07:48.075Z,97823.53
2023-07-18T02:10:16.269Z,97821.44
2023-07-18T02:12:44.124Z,97820.88
2023-07-18T02:15:15.222Z,97828.34
2023-07-18T02:17:43.400Z,97825.69
2023-07-18T02:20:13.120Z,97823.19
2023-07-18T02:22:41.829Z,97796.88
2023-07-18T02:25:10.593Z,97793.59
2023-07-18T02:27:40.512Z,97793.50
2023-07-18T02:30:11.086Z,97790.97
2023-07-18T02:32:40.748Z,97790.94
2023-07-18T02:35:09.392Z,97766.94
2023-07-18T02:37:37.656Z,97773.69
2023-07-18T02:40:10.199Z,97788.94
2023-07-18T02:42:38.318Z,97773.06
2023-07-18T02:45:07.478Z,97784.28
2023-07-18T02:47:35.386Z,97788.56
2023-07-18T02:50:04.935Z,97791.84
2023-07-18T02:52:32.896Z,97789.00
2023-07-18T02:55:00.781Z,97791.66
2023-07-18T02:57:28.692Z,97794.59
2023-07-18T02:59:56.542Z,97805.31
2023-07-18T03:02:24.408Z,97802.69
2023-07-18T03:04:52.273Z,97808.78
2023-07-18T03:07:21.434Z,97797.13
2023-07-18T03:09:49.442Z,97793.84
2023-07-18T03:12:17.295Z,97798.59
2023-07-18T03:14:45.860Z,97791.88
2023-07-18T03:17:13.713Z,97787.81
2023-07-18T03:19:41.513Z,97796.31
2023-07-18T03:22:09.356Z,97795.38
2023-07-18T03:24:38.515Z,97793.41
2023-07-18T03:27:06.514Z,97799.59
2023-07-18T03:29:34.512Z,97782.38
2023-07-18T03:32:03.162Z,97787.28
2023-07-18T03:34:31.000Z,97781.41
2023-07-18T03:36:58.877Z,97779.63
2023-07-18T03:39:27.130Z,97794.59
2023-07-18T03:41:56.323Z,97800.16
2023-07-18T03:44:24.240Z,97807.47
2023-07-18T03:46:59.257Z,97809.50
2023-07-18T03:49:38.853Z,97802.09
2023-07-18T03:52:07.449Z,97807.09
2023-07-18T03:54:35.765Z,97814.25
2023-07-18T03:57:06.076Z,97805.56
2023-07-18T03:59:34.642Z,97812.34
2023-07-18T04:02:02.816Z,97810.53
2023-07-18T04:04:32.201Z,97803.16
2023-07-18T04:07:00.026Z,97806.34
2023-07-18T04:09:26.875Z,97806.88
2023-07-18T04:11:54.729Z,97803.13
2023-07-18T04:14:26.791Z,97796.72
2023-07-18T04:16:54.637Z,97790.00
2023-07-18T04:19:22.420Z,97790.50
2023-07-18T04:21:50.265Z,97785.22
2023-07-18T04:24:18.094Z,97798.00
2023-07-18T04:26:45.980Z,97789.09
2023-07-18T04:29:13.794Z,97798.44
2023-07-18T04:31:43.096Z,97802.72
2023-07-18T04:34:10.930Z,97808.78
2023-07-18T04:36:39.033Z,97808.84
2023-07-18T04:39:06.971Z,97814.25
2023-07-18T04:41:44.971Z,97808.59
2023-07-18T04:44:17.696Z,97798.84
2023-07-18T04:46:46.895Z,97801.31
2023-07-18T04:49:14.910Z,97798.03
2023-07-18T04:51:42.764Z,97800.00
2023-07-18T04:54:13.456Z,97804.63
2023-07-18T04:56:41.697Z,97803.41
2023-07-18T04:59:09.642Z,97801.31
2023-07-18T05:01:38.029Z,97813.03
2023-07-18T05:04:07.387Z,97817.47
2023-07-18T05:06:35.283Z,97820.78
2023-07-18T05:09:04.679Z,97838.78
2023-07-18T05:11:34.994Z,97850.25
2023-07-18T05:14:03.262Z,97853.75
2023-07-18T05:16:31.199Z,97857.00
2023-07-18T05:18:59.154Z,97859.25
2023-07-18T05:21:28.328Z,97852.72
2023-07-18T05:23:56.132Z,97857.03
2023-07-18T05:26:24.164Z,97865.22
2023-07-18T05:28:52.342Z,97870.16
2023-07-18T05:31:20.616Z,97891.25
2023-07-18T05:33:48.605Z,97893.72
2023-07-18T05:36:17.427Z,97901.44
2023-07-18T05:38:47.077Z,97916.00
2023-07-18T05:41:15.274Z,97914.97
2023-07-18T05:43:43.057Z,97914.38
2023-07-18T05:46:11.746Z,97914.56
2023-07-18T05:48:39.551Z,97917.03
2023-07-18T05:51:07.378Z,97921.06
2023-07-18T05:53:35.404Z,97926.19
2023-07-18T05:56:04.622Z,97925.78
2023-07-18T05:58:32.458Z,97920.66
2023-07-18T06:01:00.343Z,97894.50
2023-07-18T06:03:28.301Z,97912.66
2023-07-18T06:05:56.386Z,97912.66
2023-07-18T06:08:24.418Z,97922.03
2023-07-18T06:10:57.633Z,97917.81
2023-07-18T06:13:28.047Z,97919.13
2023-07-18T06:15:55.901Z,97919.66
2023-07-18T06:18:23.749Z,97922.97
2023-07-18T06:20:51.824Z,97930.81
2023-07-18T06:23:19.988Z,97932.25
2023-07-18T06:25:48.170Z,97935.97
2023-07-18T06:28:16.015Z,97939.50
2023-07-18T06:30:45.271Z,97944.41
2023-07-18T06:33:14.955Z,97948.38
2023-07-18T06:35:43.364Z,97932.41
2023-07-18T06:38:11.225Z,97924.31
2023-07-18T06:40:39.077Z,97941.53
2023-07-18T06:43:08.501Z,97943.84
2023-07-18T06:45:36.373Z,97944.56
2023-07-18T06:48:06.389Z,97941.16
2023-07-18T06:50:34.513Z,97945.16
2023-07-18T06:53:02.419Z,97951.81
2023-07-18T06:55:30.261Z,97960.41
2023-07-18T06:57:58.058Z,97954.19
2023-07-18T07:00:25.909Z,97954.03
2023-07-18T07:02:53.880Z,97955.97
2023-07-18T07:05:23.124Z,97955.00
2023-07-18T07:07:50.953Z,97961.97
2023-07-18T07:10:18.847Z,97970.28
2023-07-18T07:12:46.667Z,97961.97
2023-07-18T07:15:14.489Z,97961.59
2023-07-18T07:17:42.376Z,97965.13
2023-07-18T07:20:13.802Z,97975.31
2023-07-18T07:22:53.622Z,97964.72
2023-07-18T07:25:21.497Z,97968.31
2023-07-18T07:27:49.711Z,97968.56
2023-07-18T07:30:17.761Z,97966.78
2023-07-18T07:32:45.674Z,97971.16
2023-07-18T07:35:14.574Z,97965.03
2023-07-18T07:37:43.787Z,97958.28
2023-07-18T07:40:12.402Z,97960.22
2023-07-18T07:42:40.600Z,97961.75
2023-07-18T07:45:08.769Z,97953.94
2023-07-18T07:47:37.154Z,97964.69
2023-07-18T07:50:05.654Z,97965.25
2023-07-18T07:52:33.665Z,97966.69
2023-07-18T07:55:02.982Z,97965.84
2023-07-18T07:57:31.292Z,97960.22
2023-07-18T07:59:59.163Z,97966.13
2023-07-18T08:02:27.082Z,97966.44
2023-07-18T08:04:55.096Z,97966.59
2023-07-18T08:07:22.959Z,97958.59
2023-07-18T08:09:51.248Z,97963.75
2023-07-18T08:12:22.132Z,97960.72
2023-07-18T08:14:50.750Z,97954.19
2023-07-18T08:17:19.118Z,97950.47
2023-07-18T08:19:47.179Z,97949.06
2023-07-18T08:22:15.370Z,97950.94
2023-07-18T08:24:43.164Z,97949.53
2023-07-18T08:27:11.007Z,97944.25
2023-07-18T08:29:43.092Z,97940.88
2023-07-18T08:32:11.238Z,97945.63
2023-07-18T08:34:39.244Z,97948.34
2023-07-18T08:37:09.645Z,97934.84
2023-07-18T08:39:37.756Z,97927.91
2023-07-18T08:42:06.783Z,97935.59
2023-07-18T08:44:34.767Z,97935.66
2023-07-18T08:47:06.633Z,97930.00
2023-07-18T08:49:37.329Z,97916.78
2023-07-18T08:52:06.489Z,97918.25
2023-07-18T08:54:35.603Z,97911.97
2023-07-18T08:57:04.167Z,97912.94
2023-07-18T08:59:32.197Z,97907.31
2023-07-18T09:02:00.016Z,97908.69
2023-07-18T09:04:29.267Z,97903.22
2023-07-18T09:07:11.919Z,97900.28
2023-07-18T09:09:39.707Z,97899.19
2023-07-18T09:12:10.680Z,97890.50
2023-07-18T09:14:38.499Z,97890.59
2023-07-18T09:17:07.812Z,97888.84
2023-07-18T09:19:41.080Z,97878.50
2023-07-18T09:22:09.680Z,97879.56
2023-07-18T09:24:37.914Z,97875.19
2023-07-18T09:27:06.586Z,97877.00
2023-07-18T09:29:34.361Z,97872.78
2023-07-18T09:32:02.317Z,97866.28
2023-07-18T09:34:30.170Z,97863.00
2023-07-18T09:37:00.206Z,97864.91
2023-07-18T09:39:28.870Z,97861.53
2023-07-18T09:41:57.170Z,97864.41
2023-07-18T09:44:31.728Z,97860.03
2023-07-18T09:47:01.805Z,97848.19
2023-07-18T09:49:33.930Z,97854.72
2023-07-18T09:52:17.461Z,97851.44
2023-07-18T09:54:45.653Z,97847.97
2023-07-18T09:57:14.826Z,97848.78
2023-07-18T09:59:42.659Z,97844.63
2023-07-18T10:02:12.323Z,97837.97
2023-07-18T10:04:43.578Z,97832.16
2023-07-18T10:07:11.474Z,97829.41
2023-07-18T10:09:40.660Z,97824.34
2023-07-18T10:12:11.819Z,97821.31
2023-07-18T10:14:54.169Z,97825.59
2023-07-18T10:17:38.019Z,97812.78
2023-07-18T10:20:12.394Z,97814.47
2023-07-18T10:22:47.909Z,97800.22
2023-07-18T10:25:19.398Z,97801.09
2023-07-18T10:27:47.985Z,97791.94
2023-07-18T10:30:17.280Z,97804.19
2023-07-18T10:32:53.886Z,97795.06
2023-07-18T10:35:23.174Z,97800.97
2023-07-18T10:37:52.782Z,97789.66
2023-07-18T10:40:37.105Z,97787.59
2023-07-18T10:43:06.534Z,97785.56
2023-07-18T10:45:38.219Z,97779.53
2023-07-18T10:48:15.854Z,97772.53
2023-07-18T10:50:44.756Z,97759.09
2023-07-18T10:53:13.833Z,97759.69
2023-07-18T10:55:43.044Z,97758.81
2023-07-18T10:58:11.265Z,97744.41
2023-07-18T11:00:40.516Z,97747.22
2023-07-18T11:03:09.228Z,97735.75
2023-07-18T11:05:37.046Z,97731.81
2023-07-18T11:08:05.062Z,97734.75
2023-07-18T11:10:34.318Z,97718.66
2023-07-18T11:13:03.633Z,97735.50
2023-07-18T11:15:31.636Z,97722.97
2023-07-18T11:17:59.490Z,97732.41
2023-07-18T11:20:27.616Z,97722.03
2023-07-18T11:22:55.658Z,97718.72
2023-07-18T11:25:23.706Z,97725.03
2023-07-18T11:27:51.942Z,97728.22
2023-07-18T11:30:23.040Z,97717.63
2023-07-18T11:32:50.940Z,97711.78
2023-07-18T11:35:20.761Z,97710.97
2023-07-18T11:37:51.296Z,97728.00
2023-07-18T11:40:20.002Z,97719.19
2023-07-18T11:42:49.398Z,97715.09
2023-07-18T11:45:20.957Z,97713.53
2023-07-18T11:47:52.911Z,97701.31
2023-07-18T11:50:21.121Z,97686.63
2023-07-18T11:52:49.561Z,97682.28
2023-07-18T11:55:17.539Z,97686.44
2023-07-18T11:57:45.693Z,97687.06
2023-07-18T12:00:14.631Z,97681.47
2023-07-18T12:02:45.804Z,97675.34
2023-07-18T12:05:15.760Z,97671.00
2023-07-18T12:07:44.390Z,97665.97
2023-07-18T12:10:12.884Z,97664.59
2023-07-18T12:12:40.946Z,97663.06
2023-07-18T12:15:09.934Z,97656.59
2023-07-18T12:17:39.135Z,97654.47
2023-07-18T12:20:08.166Z,97652.84
2023-07-18T12:22:38.827Z,97654.72
2023-07-18T12:25:07.511Z,97658.81
2023-07-18T12:27:35.341Z,97660.38
2023-07-18T12:30:03.431Z,97651.19
2023-07-18T12:32:32.548Z,97651.75
2023-07-18T12:35:00.570Z,97642.06
2023-07-18T12:37:28.459Z,97637.91
2023-07-18T12:39:57.674Z,97621.47
2023-07-18T12:42:25.582Z,97618.28
2023-07-18T12:44:53.882Z,97620.84
2023-07-18T12:47:21.760Z,97629.59
2023-07-18T12:52:20.297Z,97634.13
2023-07-18T12:54:48.130Z,97619.81
2023-07-18T12:57:17.426Z,97622.56
2023-07-18T12:59:45.395Z,97635.56
2023-07-18T13:02:14.536Z,97643.38
2023-07-18T13:04:42.830Z,97608.84
2023-07-18T13:07:10.824Z,97588.00
2023-07-18T13:09:39.429Z,97591.81
2023-07-18T13:12:08.074Z,97599.44
2023-07-18T13:14:37.686Z,97603.19
2023-07-18T13:17:06.211Z,97605.09
2023-07-18T13:19:34.071Z,97605.03
2023-07-18T13:22:01.931Z,97589.97
2023-07-18T13:24:29.930Z,97591.88
2023-07-18T13:26:57.837Z,97587.78
2023-07-18T13:29:25.663Z,97595.91
2023-07-18T13:31:54.960Z,97605.88
2023-07-18T13:34:23.198Z,97592.91
2023-07-18T13:36:51.099Z,97602.66
2023-07-18T13:39:18.894Z,97595.06
2023-07-18T13:41:47.494Z,97579.19
2023-07-18T13:44:15.494Z,97570.28
2023-07-18T13:46:43.448Z,97551.34
2023-07-18T13:49:12.746Z,97550.13
2023-07-18T13:51:40.707Z,97540.31
2023-07-18T13:54:09.045Z,97536.25
2023-07-18T13:56:37.033Z,97530.59
2023-07-18T13:59:04.823Z,97515.28
2023-07-18T14:01:32.772Z,97515.91
2023-07-18T14:04:00.725Z,97516.53
2023-07-18T14:06:30.062Z,97523.69
2023-07-18T14:08:57.859Z,97523.25
2023-07-18T14:11:27.583Z,97519.25
2023-07-18T14:13:56.703Z,97509.88
2023-07-18T14:16:24.714Z,97515.44
2023-07-18T14:18:52.637Z,97509.09
2023-07-18T14:21:20.463Z,97503.53
2023-07-18T14:23:49.662Z,97492.31
2023-07-18T14:26:17.779Z,97491.66
2023-07-18T14:28:45.903Z,97493.47
2023-07-18T14:31:14.462Z,97486.19
2023-07-18T14:33:51.737Z,97475.66
2023-07-18T14:36:27.614Z,97477.31
2023-07-18T14:39:18.924Z,97469.97
2023-07-18T14:41:46.784Z,97462.78
2023-07-18T14:44:15.606Z,97456.38
2023-07-18T14:46:44.341Z,97463.63
2023-07-18T14:49:25.070Z,97462.72
2023-07-18T14:51:59.986Z,97460.34
2023-07-18T14:54:32.916Z,97456.19
2023-07-18T14:57:03.262Z,97458.19
2023-07-18T14:59:31.844Z,97456.13
2023-07-18T15:01:59.772Z,97452.59
2023-07-18T15:04:27.652Z,97445.50
2023-07-18T15:06:56.844Z,97437.72
2023-07-18T15:09:26.624Z,97446.84
2023-07-18T15:11:55.845Z,97441.69
2023-07-18T15:14:23.855Z,97441.72
2023-07-18T15:16:51.713Z,97428.22
2023-07-18T15:19:19.643Z,97428.16
2023-07-18T15:21:47.474Z,97417.47
2023-07-18T15:24:15.327Z,97413.53
2023-07-18T15:26:43.184Z,97415.19
2023-07-18T15:29:12.444Z,97419.00
2023-07-18T15:31:41.638Z,97420.75
2023-07-18T15:34:10.506Z,97421.81
2023-07-18T15:36:38.358Z,97423.19
2023-07-18T15:39:07.761Z,97408.28
2023-07-18T15:41:35.761Z,97423.44
2023-07-18T15:44:03.686Z,97407.75
2023-07-18T15:46:32.911Z,97409.75
2023-07-18T15:49:00.803Z,97398.75
2023-07-18T15:51:28.818Z,97400.09
2023-07-18T15:53:56.661Z,97399.50
2023-07-18T15:56:24.627Z,97390.91
2023-07-18T15:58:53.355Z,97385.41
2023-07-18T16:01:21.250Z,97377.75
2023-07-18T16:03:50.683Z,97373.69
2023-07-18T16:06:19.031Z,97379.38
2023-07-18T16:08:47.373Z,97373.59
2023-07-18T16:11:15.445Z,97377.44
2023-07-18T16:13:44.470Z,97371.53
2023-07-18T16:16:12.468Z,97375.84
2023-07-18T16:22:54.581Z,97368.88
2023-07-18T16:25:22.497Z,97363.91
2023-07-18T16:27:50.428Z,97363.41
2023-07-18T16:30:19.269Z,97367.09
2023-07-18T16:32:47.430Z,97368.44
2023-07-18T16:35:16.420Z,97372.91
2023-07-18T16:37:44.317Z,97369.09
2023-07-18T16:40:13.891Z,97355.63
2023-07-18T16:42:41.762Z,97347.53
2023-07-18T16:45:10.741Z,97344.84
2023-07-18T16:47:38.645Z,97346.66
2023-07-18T16:50:07.972Z,97335.34
2023-07-18T16:52:35.986Z,97330.75
2023-07-18T16:55:03.866Z,97331.81
2023-07-18T16:57:33.101Z,97344.00
2023-07-18T17:00:01.083Z,97337.81
2023-07-18T17:02:29.095Z,97338.69
2023-07-18T17:04:57.147Z,97335.75
2023-07-18T17:07:25.073Z,97330.91
2023-07-18T17:09:53.068Z,97325.25
2023-07-18T17:12:20.933Z,97315.78
2023-07-18T17:14:50.183Z,97320.44
2023-07-18T17:17:18.270Z,97323.91
2023-07-18T17:20:03.205Z,97317.44
2023-07-18T17:22:34.615Z,97314.75
2023-07-18T17:25:04.612Z,97320.69
2023-07-18T17:27:32.561Z,97327.16
2023-07-18T17:30:02.511Z,97322.28
2023-07-18T17:32:30.489Z,97311.78
2023-07-18T17:34:58.618Z,97314.72
2023-07-18T17:37:26.603Z,97326.88
2023-07-18T17:42:24.118Z,97319.56
2023-07-18T17:44:53.186Z,97312.28
2023-07-18T17:47:26.505Z,97316.28
2023-07-18T17:49:54.573Z,97314.94
2023-07-18T17:52:22.473Z,97303.91
2023-07-18T17:54:50.501Z,97308.19
2023-07-18T17:57:18.493Z,97302.25
2023-07-18T17:59:49.066Z,97300.34
2023-07-18T18:02:17.017Z,97297.09
2023-07-18T18:04:48.433Z,97293.53
2023-07-18T18:07:16.338Z,97297.03
2023-07-18T18:09:44.428Z,97291.66
2023-07-18T18:12:12.260Z,97290.81
2023-07-18T18:14:40.191Z,97288.63
2023-07-18T18:17:08.689Z,97303.59
2023-07-18T18:19:36.826Z,97314.78
2023-07-18T18:22:06.918Z,97303.75
2023-07-18T18:24:34.916Z,97321.19
2023-07-18T18:27:14.598Z,97313.03
2023-07-18T18:29:42.426Z,97308.47
2023-07-18T18:32:10.640Z,97312.47
2023-07-18T18:34:42.753Z,97314.91
2023-07-18T18:37:16.934Z,97313.47
2023-07-18T18:39:44.792Z,97324.66
2023-07-18T18:42:12.588Z,97329.41
2023-07-18T18:44:49.915Z,97332.00
2023-07-18T18:47:26.941Z,97329.09
2023-07-18T18:49:57.502Z,97331.13
2023-07-18T18:52:27.022Z,97337.94
2023-07-18T18:55:08.586Z,97340.03
2023-07-18T18:57:43.695Z,97334.44
2023-07-18T19:00:12.284Z,97343.53
2023-07-18T19:02:40.640Z,97344.13
2023-07-18T19:05:09.040Z,97338.19
2023-07-18T19:07:38.292Z,97341.28
2023-07-18T19:10:06.804Z,97346.41
2023-07-18T19:12:34.908Z,97337.09
2023-07-18T19:15:03.666Z,97335.63
2023-07-18T19:17:31.601Z,97342.75
2023-07-18T19:19:59.523Z,97344.31
2023-07-18T19:22:27.413Z,97342.03
2023-07-18T19:24:56.641Z,97339.50
2023-07-18T19:27:24.739Z,97331.41
2023-07-18T19:29:52.828Z,97331.06
2023-07-18T19:32:21.072Z,97331.53
2023-07-18T19:34:48.954Z,97326.59
2023-07-18T19:37:16.877Z,97328.34
2023-07-18T19:39:44.780Z,97325.44
2023-07-18T19:42:13.968Z,97320.94
2023-07-18T19:44:41.866Z,97325.31
2023-07-18T19:47:12.542Z,97324.72
2023-07-18T19:49:40.410Z,97323.03
2023-07-18T19:52:08.949Z,97332.78
2023-07-18T19:54:36.812Z,97331.38
2023-07-18T19:57:05.273Z,97327.25
2023-07-18T19:59:34.492Z,97337.38
2023-07-18T20:02:02.753Z,97337.72
2023-07-18T20:04:30.816Z,97343.53
2023-07-18T20:06:59.087Z,97331.66
2023-07-18T20:09:26.997Z,97342.25
2023-07-18T20:11:54.901Z,97335.97
2023-07-18T20:14:22.899Z,97329.34
2023-07-18T20:16:52.216Z,97331.16
2023-07-18T20:19:20.167Z,97315.56
2023-07-18T20:21:48.007Z,97316.03
2023-07-18T20:24:15.985Z,97333.56
2023-07-18T20:26:43.893Z,97338.41
2023-07-18T20:29:11.828Z,97328.09
2023-07-18T20:31:39.997Z,97330.53
2023-07-18T20:34:09.185Z,97321.69
2023-07-18T20:36:37.669Z,97326.38
2023-07-18T20:39:06.066Z,97322.06
2023-07-18T20:41:34.263Z,97321.50
2023-07-18T20:44:03.152Z,97323.09
2023-07-18T20:46:31.091Z,97309.34
2023-07-18T20:48:58.954Z,97301.78
2023-07-18T20:51:28.280Z,97296.34
2023-07-18T20:53:56.165Z,97298.69
2023-07-18T20:56:23.981Z,97290.09
2023-07-18T20:58:51.807Z,97287.56
2023-07-18T21:01:20.032Z,97282.72
2023-07-18T21:03:48.229Z,97287.94
2023-07-18T21:06:16.073Z,97283.75
2023-07-18T21:08:46.981Z,97291.28
2023-07-18T21:11:15.747Z,97281.47
2023-07-18T21:13:44.311Z,97285.19
2023-07-18T21:16:12.139Z,97289.34
2023-07-18T21:18:40.094Z,97296.84
2023-07-18T21:21:07.964Z,97299.78
2023-07-18T21:23:35.844Z,97308.44
2023-07-18T21:26:05.186Z,97310.44
2023-07-18T21:28:33.031Z,97301.34
2023-07-18T21:31:00.895Z,97293.81
2023-07-18T21:33:28.755Z,97271.22
2023-07-18T21:35:57.244Z,97273.69
2023-07-18T21:38:25.096Z,97280.50
2023-07-18T21:40:53.045Z,97266.06
2023-07-18T21:43:22.200Z,97248.69
2023-07-18T21:45:50.167Z,97257.28
2023-07-18T21:48:18.053Z,97260.19
2023-07-18T21:50:45.963Z,97257.88
2023-07-18T21:53:14.276Z,97263.47
2023-07-18T21:55:42.241Z,97239.38
2023-07-18T21:58:10.128Z,97230.38
2023-07-18T22:00:39.372Z,97235.19
2023-07-18T22:03:08.223Z,97224.81
2023-07-18T22:05:36.189Z,97230.81
2023-07-18T22:08:04.106Z,97242.41
2023-07-18T22:10:32.574Z,97255.22
2023-07-18T22:13:00.455Z,97261.22
2023-07-18T22:15:28.345Z,97254.63
2023-07-18T22:18:08.968Z,97246.69
2023-07-18T22:20:44.201Z,97207.28
2023-07-18T22:23:12.104Z,97208.00
2023-07-18T22:25:39.935Z,97197.31
2023-07-18T22:28:07.765Z,97193.19
2023-07-18T22:30:35.662Z,97189.56
2023-07-18T22:33:05.047Z,97186.00
2023-07-18T22:35:32.934Z,97189.34
2023-07-18T22:38:01.490Z,97184.09
2023-07-18T22:40:29.344Z,97190.72
2023-07-18T22:42:57.165Z,97188.97
2023-07-18T22:45:24.981Z,97181.81
2023-07-18T22:47:52.807Z,97200.34
2023-07-18T22:50:22.008Z,97202.97
2023-07-18T22:52:49.917Z,97185.13
2023-07-18T22:55:17.849Z,97187.38
2023-07-18T22:57:45.682Z,97184.97
2023-07-18T23:00:14.484Z,97185.56
2023-07-18T23:02:43.707Z,97175.91
2023-07-18T23:05:11.764Z,97153.03
2023-07-18T23:07:40.934Z,97145.66
2023-07-18T23:10:09.672Z,97155.34
2023-07-18T23:12:37.510Z,97159.84
2023-07-18T23:15:06.073Z,97175.97
2023-07-18T23:17:34.655Z,97169.16
2023-07-18T23:20:02.764Z,97160.81
2023-07-18T23:22:30.647Z,97154.91
2023-07-18T23:24:59.930Z,97157.19
2023-07-18T23:27:27.801Z,97148.97
2023-07-18T23:29:55.605Z,97151.06
2023-07-18T23:32:23.493Z,97140.31
2023-07-18T23:34:51.486Z,97158.16
2023-07-18T23:37:19.428Z,97160.84
2023-07-18T23:39:47.265Z,97174.16
2023-07-18T23:42:16.469Z,97188.88
2023-07-18T23:44:44.289Z,97195.66
2023-07-18T23:47:12.161Z,97190.16
2023-07-18T23:49:40.046Z,97197.59
2023-07-18T23:52:08.573Z,97198.47
2023-07-18T23:54:36.436Z,97200.94
2023-07-18T23:57:04.562Z,97178.44
2023-07-18T23:59:33.820Z,97158.31
